Aviation Digital Data Service (ADDS)

Output produced by METARs form (0138 UTC 23 April 2021)
found at http://aviationweather.gov/metar/data/
 
METAR text: KEIK 230135Z AUTO 17005KT 10SM SCT090 09/02 A2977 RMK AO2 T00910017
Conditions at: KEIK (ERIE MUNI , CO, US) observed 0135 UTC 23 April 2021
Temperature: 9.1°C (48°F)
Dewpoint: 1.7°C (35°F) [RH = 60%]
Pressure (altimeter): 29.77 inches Hg (1008.2 mb)
Winds: from the S (170 degrees) at 6 MPH (5 knots; 2.6 m/s)
Visibility: 10 or more miles (16+ km)
Ceiling: at least 12,000 feet AGL
Clouds: scattered clouds at 9000 feet AGL
Weather: automated observation with no human augmentation;
there may or may not be significant weather present at this time

METAR text: KEIK 230115Z AUTO 00000KT 10SM CLR 10/01 A2978 RMK AO2 T00950013
Conditions at: KEIK (ERIE MUNI , CO, US) observed 0115 UTC 23 April 2021
Temperature: 9.5°C (49°F)
Dewpoint: 1.3°C (34°F) [RH = 57%]
Pressure (altimeter): 29.78 inches Hg (1008.5 mb)
Winds: calm
Visibility: 10 or more miles (16+ km)
Ceiling: at least 12,000 feet AGL
Clouds: sky clear below 12,000 feet AGL
Weather: automated observation with no human augmentation;
there may or may not be significant weather present at this time

METAR text: KEIK 230055Z AUTO 13004KT 10SM SCT080 10/02 A2976 RMK AO2 T01000018
Conditions at: KEIK (ERIE MUNI , CO, US) observed 0055 UTC 23 April 2021
Temperature: 10.0°C (50°F)
Dewpoint: 1.8°C (35°F) [RH = 57%]
Pressure (altimeter): 29.76 inches Hg (1007.9 mb)
Winds: from the SE (130 degrees) at 5 MPH (4 knots; 2.1 m/s)
Visibility: 10 or more miles (16+ km)
Ceiling: at least 12,000 feet AGL
Clouds: scattered clouds at 8000 feet AGL
Weather: automated observation with no human augmentation;
there may or may not be significant weather present at this time